Time;durP1;ratioP1;P1;durP2;ratioP2;P2;SDS_P1;SDS_P2;PMS_P1;PMS_P2;Temp;Humidity;BMP_temperature;BMP_pressure;BME280_temperature;BME280_humidity;BME280_pressure;Samples;Min_cycle;Max_cycle;Signal;HPM_P1;HPM_P2
2024/03/03 00:00:33;;;;;;;5.05;2.70;;;14.30;67.70;;;;;;2546273;54;21457;-65
2024/03/03 00:03:00;;;;;;;4.32;2.50;;;14.30;67.80;;;;;;2308064;54;21047;-65
2024/03/03 00:05:26;;;;;;;6.18;2.80;;;14.30;67.80;;;;;;2546658;54;21003;-65
2024/03/03 00:07:52;;;;;;;4.78;2.70;;;14.20;67.70;;;;;;2541691;53;21408;-65
2024/03/03 00:10:20;;;;;;;5.15;2.83;;;14.20;67.70;;;;;;2286511;55;21276;-65
2024/03/03 00:12:46;;;;;;;5.30;3.20;;;14.10;67.50;;;;;;2332812;54;20975;-66
2024/03/03 00:15:13;;;;;;;4.30;2.40;;;14.20;67.70;;;;;;2340532;54;20953;-66
2024/03/03 00:17:41;;;;;;;4.80;2.72;;;14.10;67.80;;;;;;2585611;53;21399;-65
2024/03/03 00:20:08;;;;;;;7.25;2.45;;;14.10;67.80;;;;;;2339763;54;21158;-66
2024/03/03 00:22:34;;;;;;;4.40;3.05;;;14.10;67.80;;;;;;2339682;54;20964;-65
2024/03/03 00:25:01;;;;;;;5.55;3.40;;;14.10;67.60;;;;;;2316560;54;21473;-66
2024/03/03 00:27:29;;;;;;;4.47;2.60;;;14.00;67.50;;;;;;2340189;54;21044;-66
2024/03/03 00:29:56;;;;;;;5.15;2.87;;;14.00;67.50;;;;;;2340367;54;21013;-65
2024/03/03 00:32:22;;;;;;;4.95;2.58;;;14.00;67.60;;;;;;2340184;54;21517;-66
2024/03/03 00:35:09;;;;;;;5.07;2.92;;;13.90;67.50;;;;;;2585668;53;20937;-66
2024/03/03 00:37:38;;;;;;;6.18;2.95;;;13.90;66.60;;;;;;2586087;53;20936;-65
2024/03/03 00:40:06;;;;;;;5.18;2.78;;;13.90;67.50;;;;;;2340231;54;21540;-65
2024/03/03 00:42:32;;;;;;;5.07;2.85;;;13.80;67.50;;;;;;2340491;54;21108;-65
2024/03/03 00:44:58;;;;;;;4.75;2.60;;;13.90;67.60;;;;;;2586202;53;20956;-66
2024/03/03 00:47:25;;;;;;;5.25;2.95;;;13.80;67.50;;;;;;2340168;54;20945;-65
2024/03/03 00:49:51;;;;;;;5.40;2.80;;;13.80;67.50;;;;;;2339776;54;20957;-66
2024/03/03 00:52:17;;;;;;;5.22;3.10;;;13.80;67.50;;;;;;2327733;54;21423;-65
2024/03/03 00:54:44;;;;;;;4.60;2.90;;;13.70;67.40;;;;;;2573147;53;21491;-65
2024/03/03 00:57:10;;;;;;;6.50;3.22;;;13.70;67.40;;;;;;2586201;53;21406;-65
2024/03/03 00:59:36;;;;;;;5.65;3.25;;;13.70;67.50;;;;;;2340048;54;20953;-65
2024/03/03 01:02:07;;;;;;;6.07;3.50;;;13.70;67.60;;;;;;2340156;54;21307;-65
2024/03/03 01:04:33;;;;;;;6.90;3.58;;;13.60;67.50;;;;;;2339762;54;21414;-66
2024/03/03 01:07:00;;;;;;;5.53;3.47;;;13.60;67.50;;;;;;2585893;53;21005;-66
2024/03/03 01:09:26;;;;;;;5.55;3.45;;;13.50;67.40;;;;;;2340486;54;21008;-65
2024/03/03 01:11:53;;;;;;;4.62;2.78;;;13.50;67.50;;;;;;2586043;53;22521;-65
2024/03/03 01:14:21;;;;;;;6.28;3.60;;;13.50;67.50;;;;;;2340349;54;21257;-65
2024/03/03 01:16:48;;;;;;;6.90;3.28;;;13.50;67.50;;;;;;2339918;54;21681;-65
2024/03/03 01:19:14;;;;;;;5.20;3.25;;;13.40;67.40;;;;;;2340034;54;21517;-65
2024/03/03 01:21:41;;;;;;;5.22;3.05;;;13.40;67.40;;;;;;2339543;54;20957;-66
2024/03/03 01:24:07;;;;;;;4.62;2.95;;;13.40;67.50;;;;;;2316546;55;21002;-66
2024/03/03 01:26:35;;;;;;;4.95;3.10;;;13.40;67.50;;;;;;2585813;53;21005;-66
2024/03/03 01:29:01;;;;;;;5.87;3.33;;;13.30;67.40;;;;;;2585323;53;20992;-65
2024/03/03 01:31:29;;;;;;;5.90;3.53;;;13.30;67.30;;;;;;2585968;53;20945;-65
2024/03/03 01:33:56;;;;;;;6.25;3.17;;;13.30;67.40;;;;;;2585467;53;20992;-66
2024/03/03 01:36:26;;;;;;;5.70;2.97;;;13.20;67.40;;;;;;2339798;54;20917;-65
2024/03/03 01:38:53;;;;;;;5.50;3.33;;;13.20;67.50;;;;;;2336352;54;21292;-65
2024/03/03 01:41:22;;;;;;;5.82;3.03;;;13.20;67.50;;;;;;2339930;54;21067;-65
2024/03/03 01:43:48;;;;;;;5.82;3.20;;;13.20;67.50;;;;;;2339535;54;20953;-65
2024/03/03 01:46:14;;;;;;;4.72;2.85;;;13.10;67.50;;;;;;2339121;54;20961;-65
2024/03/03 01:48:41;;;;;;;6.28;2.92;;;13.10;67.40;;;;;;2339943;54;20951;-65
2024/03/03 01:51:07;;;;;;;6.57;3.67;;;13.10;67.50;;;;;;2340678;55;21009;-65
2024/03/03 01:53:37;;;;;;;4.47;2.35;;;13.00;67.50;;;;;;2339706;54;20996;-65
2024/03/03 01:56:03;;;;;;;5.30;2.67;;;13.00;67.50;;;;;;2340696;54;21451;-65
2024/03/03 01:58:30;;;;;;;4.55;2.58;;;13.00;67.60;;;;;;2308424;54;20967;-65
2024/03/03 02:01:00;;;;;;;4.90;2.92;;;13.00;67.60;;;;;;2307846;54;21864;-65
2024/03/03 02:03:27;;;;;;;5.10;2.85;;;12.90;67.40;;;;;;2307209;54;21866;-66
2024/03/03 02:05:53;;;;;;;4.82;2.72;;;12.90;67.60;;;;;;2523496;53;21060;-65
2024/03/03 02:08:19;;;;;;;4.40;2.50;;;13.00;67.80;;;;;;2510616;54;21724;-66
2024/03/03 02:10:46;;;;;;;4.72;2.33;;;12.90;67.90;;;;;;2307814;55;20959;-66
2024/03/03 02:13:12;;;;;;;4.62;2.37;;;12.90;67.90;;;;;;2314522;54;20987;-66
2024/03/03 02:15:38;;;;;;;4.75;2.37;;;12.90;67.90;;;;;;2308198;55;21015;-65
2024/03/03 02:18:05;;;;;;;5.93;3.22;;;12.90;67.90;;;;;;2308290;55;21563;-65
2024/03/03 02:20:31;;;;;;;4.32;2.53;;;12.90;67.90;;;;;;2547171;54;21315;-65
2024/03/03 02:22:59;;;;;;;5.95;2.62;;;12.80;67.80;;;;;;2307591;54;21516;-65
2024/03/03 02:25:26;;;;;;;5.20;2.95;;;12.80;67.80;;;;;;2541885;54;20932;-65
2024/03/03 02:27:54;;;;;;;4.43;2.25;;;12.80;67.90;;;;;;2572303;53;21264;-65
2024/03/03 02:30:20;;;;;;;4.87;2.37;;;12.80;67.90;;;;;;2317636;54;20941;-65
2024/03/03 02:32:46;;;;;;;5.60;3.20;;;12.80;67.90;;;;;;2339469;54;21036;-65
2024/03/03 02:35:14;;;;;;;4.30;2.62;;;12.80;67.90;;;;;;2586123;53;20953;-66
2024/03/03 02:37:44;;;;;;;5.40;2.92;;;12.80;67.90;;;;;;2340368;54;20921;-65
2024/03/03 02:40:11;;;;;;;4.70;2.95;;;12.80;67.80;;;;;;2340415;54;21295;-65
2024/03/03 02:42:38;;;;;;;4.32;2.35;;;12.80;67.90;;;;;;2587006;53;20941;-65
2024/03/03 02:45:05;;;;;;;4.97;2.72;;;12.70;67.80;;;;;;2586095;53;20969;-65
2024/03/03 02:47:31;;;;;;;4.68;2.47;;;12.70;67.80;;;;;;2340711;54;21048;-65
2024/03/03 02:49:58;;;;;;;5.37;2.70;;;12.70;67.80;;;;;;2339934;54;20936;-65
2024/03/03 02:52:24;;;;;;;3.85;2.33;;;12.70;67.80;;;;;;2340335;54;21497;-65
2024/03/03 02:54:50;;;;;;;4.95;2.53;;;12.70;67.80;;;;;;2340243;54;21015;-65
2024/03/03 02:57:17;;;;;;;5.87;2.80;;;12.70;67.80;;;;;;2586392;53;20997;-65
2024/03/03 02:59:43;;;;;;;4.50;2.45;;;12.70;67.80;;;;;;2586023;53;21000;-66
2024/03/03 03:02:10;;;;;;;4.87;2.75;;;12.60;67.60;;;;;;2341071;54;21029;-65
2024/03/03 03:04:36;;;;;;;6.53;2.65;;;12.60;67.60;;;;;;2340585;54;20940;-65
2024/03/03 03:07:02;;;;;;;4.80;2.78;;;12.60;67.70;;;;;;2339574;54;20960;-66
2024/03/03 03:09:29;;;;;;;5.22;2.83;;;12.60;67.80;;;;;;2340397;54;21604;-65
2024/03/03 03:11:55;;;;;;;5.07;2.75;;;12.50;67.80;;;;;;2339944;54;20984;-65
2024/03/03 03:14:24;;;;;;;4.72;2.60;;;12.50;67.80;;;;;;2586588;53;21304;-66
2024/03/03 03:16:50;;;;;;;4.15;2.28;;;12.50;68.00;;;;;;2339474;54;21028;-65
2024/03/03 03:19:17;;;;;;;5.30;2.33;;;12.50;68.00;;;;;;2340521;54;21011;-65
2024/03/03 03:21:43;;;;;;;4.12;2.30;;;12.50;68.00;;;;;;2340040;54;20960;-66
2024/03/03 03:24:10;;;;;;;4.43;2.42;;;12.50;68.10;;;;;;2340040;54;20953;-65
2024/03/03 03:26:36;;;;;;;4.35;2.28;;;12.50;68.10;;;;;;2340443;54;21027;-65
2024/03/03 03:29:04;;;;;;;6.15;2.30;;;12.40;68.00;;;;;;2586052;53;21032;-65
2024/03/03 03:31:30;;;;;;;3.60;2.00;;;12.40;68.00;;;;;;2340475;54;20988;-65
2024/03/03 03:33:58;;;;;;;3.00;1.60;;;12.40;68.10;;;;;;2326334;54;21402;-65
2024/03/03 03:36:24;;;;;;;4.00;2.10;;;12.40;68.10;;;;;;2331426;54;20997;-66
2024/03/03 03:38:50;;;;;;;3.97;2.08;;;12.40;68.20;;;;;;2339347;54;20953;-65
2024/03/03 03:41:19;;;;;;;3.40;1.65;;;12.40;68.20;;;;;;2585850;53;21000;-65
2024/03/03 03:43:46;;;;;;;4.03;2.00;;;12.40;68.20;;;;;;2340297;54;21426;-65
2024/03/03 03:46:13;;;;;;;4.40;2.33;;;12.40;68.20;;;;;;2586262;53;21395;-65
2024/03/03 03:48:39;;;;;;;3.95;2.12;;;12.40;68.30;;;;;;2585841;53;21480;-66
2024/03/03 03:51:06;;;;;;;3.72;2.22;;;12.40;68.30;;;;;;2586116;53;20957;-65
2024/03/03 03:53:33;;;;;;;5.25;2.05;;;12.40;68.30;;;;;;2586348;53;21020;-65
2024/03/03 03:56:00;;;;;;;3.80;2.20;;;12.40;68.20;;;;;;2339944;54;20992;-66
2024/03/03 03:58:27;;;;;;;4.37;2.40;;;12.40;68.20;;;;;;2340394;54;21331;-65
2024/03/03 04:00:53;;;;;;;4.18;2.28;;;12.30;68.10;;;;;;2585436;53;20941;-65
2024/03/03 04:03:20;;;;;;;5.10;2.70;;;12.40;68.20;;;;;;2583802;53;21000;-65
2024/03/03 04:05:46;;;;;;;4.55;2.65;;;12.30;68.20;;;;;;2315801;55;20981;-65
2024/03/03 04:08:12;;;;;;;5.18;2.72;;;12.30;68.20;;;;;;2585698;53;20941;-65
2024/03/03 04:10:39;;;;;;;4.12;2.60;;;12.30;68.20;;;;;;2330508;54;21344;-66
2024/03/03 04:13:05;;;;;;;4.87;2.67;;;12.30;68.20;;;;;;2326200;54;21324;-65
2024/03/03 04:15:31;;;;;;;4.62;2.67;;;12.30;68.30;;;;;;2341058;54;20916;-65
2024/03/03 04:17:59;;;;;;;5.70;3.20;;;12.30;68.30;;;;;;2340129;54;20956;-65
2024/03/03 04:20:25;;;;;;;5.90;3.55;;;12.30;68.30;;;;;;2585787;53;20944;-65
2024/03/03 04:22:52;;;;;;;6.93;3.33;;;12.20;68.30;;;;;;2339927;54;20969;-66
2024/03/03 04:25:18;;;;;;;5.87;3.53;;;12.20;68.30;;;;;;2586146;53;21746;-65
2024/03/03 04:27:44;;;;;;;6.18;3.58;;;12.20;68.30;;;;;;2340552;54;21425;-66
2024/03/03 04:30:11;;;;;;;5.78;3.67;;;12.20;68.30;;;;;;2585814;53;20965;-65
2024/03/03 04:32:37;;;;;;;5.40;3.33;;;12.20;68.30;;;;;;2317738;54;20944;-65
2024/03/03 04:35:05;;;;;;;6.60;3.78;;;12.20;68.30;;;;;;2338813;54;20933;-65
2024/03/03 04:37:31;;;;;;;5.75;3.75;;;12.20;68.30;;;;;;2340427;54;20948;-65
2024/03/03 04:39:58;;;;;;;8.20;3.97;;;12.20;68.30;;;;;;2340395;54;20933;-66
2024/03/03 04:42:24;;;;;;;6.87;3.85;;;12.20;68.30;;;;;;2555548;53;21475;-65
2024/03/03 04:44:53;;;;;;;7.35;4.57;;;12.20;68.30;;;;;;2553825;53;20921;-65
2024/03/03 04:47:20;;;;;;;7.30;4.25;;;12.20;68.30;;;;;;2340314;54;20992;-65
2024/03/03 04:49:47;;;;;;;7.90;4.80;;;12.10;68.10;;;;;;2340100;54;20996;-65
2024/03/03 04:52:13;;;;;;;6.03;4.10;;;12.10;68.20;;;;;;2339662;54;21472;-65
2024/03/03 04:54:40;;;;;;;7.82;4.43;;;12.10;68.10;;;;;;2586575;53;20965;-65
2024/03/03 04:57:07;;;;;;;6.35;3.75;;;12.10;68.20;;;;;;2339495;54;21032;-65
2024/03/03 04:59:34;;;;;;;6.43;4.10;;;12.10;68.20;;;;;;2585983;53;21017;-65
2024/03/03 05:02:00;;;;;;;6.82;4.10;;;12.10;68.20;;;;;;2585961;53;21017;-65
2024/03/03 05:04:27;;;;;;;6.95;3.97;;;12.00;68.20;;;;;;2340600;54;20961;-65
2024/03/03 05:06:53;;;;;;;6.22;3.60;;;12.10;68.30;;;;;;2557094;53;20961;-65
2024/03/03 05:09:21;;;;;;;7.20;3.50;;;12.10;68.30;;;;;;2339981;54;21004;-65
2024/03/03 05:11:47;;;;;;;5.55;3.50;;;12.10;68.30;;;;;;2340263;54;20944;-65
2024/03/03 05:14:14;;;;;;;5.47;2.75;;;12.00;68.20;;;;;;2339613;54;21024;-65
2024/03/03 05:16:41;;;;;;;7.50;3.40;;;12.00;68.20;;;;;;2340384;54;20993;-65
2024/03/03 05:19:08;;;;;;;42.10;19.92;;;12.00;68.20;;;;;;2339866;54;20980;-65
2024/03/03 05:21:35;;;;;;;75.60;36.40;;;12.00;68.20;;;;;;2586742;53;20928;-65
2024/03/03 05:24:02;;;;;;;75.57;36.83;;;12.00;68.20;;;;;;2339938;54;20984;-65
2024/03/03 05:26:28;;;;;;;92.18;44.40;;;12.00;68.20;;;;;;2586396;53;21012;-65
2024/03/03 05:28:54;;;;;;;90.62;43.63;;;12.00;68.20;;;;;;2339866;54;21048;-65
2024/03/03 05:31:21;;;;;;;74.22;34.33;;;12.00;68.20;;;;;;2340005;54;21490;-65
2024/03/03 05:33:47;;;;;;;59.92;29.15;;;12.00;68.10;;;;;;2316330;55;21232;-65
2024/03/03 05:36:13;;;;;;;44.60;21.85;;;11.90;68.00;;;;;;2339384;54;20953;-65
2024/03/03 05:38:40;;;;;;;34.70;17.50;;;11.90;67.90;;;;;;2340278;54;20973;-65
2024/03/03 05:41:06;;;;;;;26.27;13.27;;;11.90;67.90;;;;;;2338736;54;21060;-65
2024/03/03 05:43:32;;;;;;;18.20;9.30;;;11.90;67.90;;;;;;2585768;53;21673;-65
2024/03/03 05:45:59;;;;;;;18.50;9.20;;;11.90;68.60;;;;;;2586118;53;20961;-65
2024/03/03 05:48:25;;;;;;;15.25;7.62;;;11.80;67.90;;;;;;2585137;53;20969;-65
2024/03/03 05:50:52;;;;;;;13.38;7.20;;;11.80;67.90;;;;;;2339046;54;20957;-65
2024/03/03 05:53:18;;;;;;;12.18;6.10;;;11.80;67.90;;;;;;2339643;54;21044;-65
2024/03/03 05:55:44;;;;;;;11.68;6.05;;;11.80;67.90;;;;;;2340312;54;21423;-65
2024/03/03 05:58:10;;;;;;;8.65;4.90;;;11.80;67.90;;;;;;2340006;54;21017;-65
2024/03/03 06:00:38;;;;;;;7.72;4.65;;;11.70;67.70;;;;;;2586756;53;21042;-65
2024/03/03 06:03:05;;;;;;;6.50;3.75;;;11.70;67.80;;;;;;2340242;54;20960;-65
2024/03/03 06:05:32;;;;;;;6.18;3.62;;;11.70;67.90;;;;;;2317318;55;20974;-65
2024/03/03 06:08:01;;;;;;;5.90;3.45;;;11.60;67.80;;;;;;2586548;53;20908;-65
2024/03/03 06:10:28;;;;;;;6.47;3.30;;;11.60;67.80;;;;;;2335331;54;21033;-65
2024/03/03 06:12:54;;;;;;;4.80;2.85;;;11.60;67.90;;;;;;2322416;54;21005;-65
2024/03/03 06:15:20;;;;;;;5.72;3.47;;;11.60;67.80;;;;;;2340177;54;20981;-65
2024/03/03 06:17:47;;;;;;;6.93;3.12;;;11.60;68.60;;;;;;2586736;53;21498;-65
2024/03/03 06:20:13;;;;;;;5.72;3.35;;;11.60;67.90;;;;;;2585698;53;20961;-65
2024/03/03 06:22:39;;;;;;;4.37;2.55;;;11.50;67.80;;;;;;2340060;54;20965;-65
2024/03/03 06:25:08;;;;;;;5.53;2.75;;;11.50;67.70;;;;;;2585214;53;21067;-65
2024/03/03 06:27:34;;;;;;;4.95;2.70;;;11.50;67.70;;;;;;2586655;53;20993;-65
2024/03/03 06:30:00;;;;;;;4.43;3.00;;;11.50;67.70;;;;;;2586307;53;21054;-65
2024/03/03 06:32:27;;;;;;;4.72;2.87;;;11.40;67.70;;;;;;2586095;53;20968;-65
2024/03/03 06:34:53;;;;;;;5.15;2.90;;;11.40;67.80;;;;;;2340156;54;21850;-65
2024/03/03 06:37:21;;;;;;;5.72;3.15;;;11.40;67.90;;;;;;2585775;53;21001;-65
2024/03/03 06:39:48;;;;;;;4.70;2.80;;;11.40;68.00;;;;;;2339897;54;20944;-65
2024/03/03 06:42:14;;;;;;;5.68;3.25;;;11.30;67.80;;;;;;2585118;53;21505;-65
2024/03/03 06:44:42;;;;;;;6.50;3.78;;;11.30;67.90;;;;;;2340552;54;22038;-65
2024/03/03 06:47:08;;;;;;;5.87;3.40;;;11.30;67.90;;;;;;2331396;54;21907;-65
2024/03/03 06:49:34;;;;;;;4.50;2.70;;;11.30;68.00;;;;;;2324779;54;20960;-65
2024/03/03 06:52:02;;;;;;;6.37;2.65;;;11.30;68.10;;;;;;2340050;54;21004;-65
2024/03/03 06:54:29;;;;;;;5.05;2.78;;;11.30;68.10;;;;;;2585651;53;21637;-65
2024/03/03 06:56:55;;;;;;;5.45;3.17;;;11.30;68.20;;;;;;2340563;54;20953;-65
2024/03/03 06:59:22;;;;;;;5.53;3.20;;;11.20;68.00;;;;;;2340411;54;21054;-65
2024/03/03 07:01:49;;;;;;;4.43;2.35;;;11.20;68.00;;;;;;2586462;53;20973;-65
2024/03/03 07:04:23;;;;;;;4.45;3.00;;;11.20;68.00;;;;;;2552464;53;20962;-65
2024/03/03 07:06:51;;;;;;;5.00;3.00;;;11.20;68.10;;;;;;2340111;54;21009;-65
2024/03/03 07:09:22;;;;;;;4.57;2.75;;;11.20;68.00;;;;;;2586233;53;21418;-66
2024/03/03 07:11:50;;;;;;;5.32;3.10;;;11.20;68.10;;;;;;2317317;55;21233;-66
2024/03/03 07:14:16;;;;;;;4.87;2.80;;;11.20;68.20;;;;;;2586049;53;20977;-65
2024/03/03 07:16:43;;;;;;;5.87;3.60;;;11.10;68.10;;;;;;2586558;53;21740;-65
2024/03/03 07:19:09;;;;;;;5.47;3.50;;;11.10;68.20;;;;;;2340054;54;21048;-65
2024/03/03 07:21:35;;;;;;;5.35;3.37;;;11.10;68.30;;;;;;2340690;54;21024;-65
2024/03/03 07:24:02;;;;;;;6.03;3.83;;;11.10;68.40;;;;;;2340266;54;21658;-65
2024/03/03 07:26:28;;;;;;;5.62;3.45;;;11.10;68.40;;;;;;2586179;53;21408;-65
2024/03/03 07:28:55;;;;;;;6.60;3.87;;;11.10;68.40;;;;;;2585876;53;20953;-65
2024/03/03 07:31:21;;;;;;;5.78;4.00;;;11.10;68.50;;;;;;2571625;53;20958;-65
2024/03/03 07:33:47;;;;;;;7.30;3.85;;;11.10;68.50;;;;;;2326046;54;20952;-65
2024/03/03 07:36:14;;;;;;;5.87;3.60;;;11.10;68.70;;;;;;2337098;54;20937;-65
2024/03/03 07:38:40;;;;;;;7.03;4.25;;;11.10;68.70;;;;;;2317635;54;21004;-65
2024/03/03 07:41:06;;;;;;;6.80;4.15;;;11.10;68.70;;;;;;2586350;53;20948;-65
2024/03/03 07:43:33;;;;;;;7.00;4.18;;;11.10;68.80;;;;;;2585785;53;20961;-66
2024/03/03 07:45:59;;;;;;;8.48;4.90;;;11.10;68.90;;;;;;2340164;54;20964;-65
2024/03/03 07:48:26;;;;;;;8.02;5.20;;;11.20;69.00;;;;;;2585710;53;21827;-66
2024/03/03 07:50:52;;;;;;;7.93;5.18;;;11.20;69.10;;;;;;2340663;54;21012;-65
2024/03/03 07:53:18;;;;;;;9.23;6.00;;;11.20;69.20;;;;;;2338746;54;20968;-65
2024/03/03 07:55:44;;;;;;;8.63;5.47;;;11.20;69.30;;;;;;2340424;54;21004;-65
2024/03/03 07:58:11;;;;;;;9.50;5.47;;;11.20;69.40;;;;;;2339543;54;22138;-65
2024/03/03 08:00:38;;;;;;;10.07;6.32;;;11.20;69.50;;;;;;2586265;53;20972;-65
2024/03/03 08:03:05;;;;;;;10.65;6.55;;;11.20;69.60;;;;;;2339694;54;21280;-65
2024/03/03 08:05:32;;;;;;;13.07;7.20;;;11.30;69.80;;;;;;2339328;54;20968;-66
2024/03/03 08:07:59;;;;;;;12.48;7.40;;;11.30;69.80;;;;;;2339516;54;20964;-65
2024/03/03 08:10:26;;;;;;;13.20;7.87;;;11.30;69.80;;;;;;2339652;54;21008;-65
2024/03/03 08:12:52;;;;;;;11.38;6.87;;;11.30;69.90;;;;;;2340488;54;20945;-65
2024/03/03 08:15:19;;;;;;;11.45;6.78;;;11.40;70.10;;;;;;2584384;53;20969;-65
2024/03/03 08:17:45;;;;;;;12.98;7.78;;;11.40;70.20;;;;;;2339792;54;21201;-65
2024/03/03 08:20:12;;;;;;;13.90;8.20;;;11.40;70.30;;;;;;2317247;54;21068;-65
2024/03/03 08:22:39;;;;;;;15.15;8.38;;;11.40;70.30;;;;;;2339935;54;20967;-65
2024/03/03 08:25:08;;;;;;;12.70;8.05;;;11.50;70.50;;;;;;2340070;54;20965;-65
2024/03/03 08:27:34;;;;;;;15.90;8.68;;;11.50;70.50;;;;;;2585952;53;21205;-65
2024/03/03 08:30:01;;;;;;;13.90;8.25;;;11.60;70.60;;;;;;2340706;54;20984;-65
2024/03/03 08:32:27;;;;;;;15.18;8.43;;;11.60;70.70;;;;;;2585799;53;21724;-65
2024/03/03 08:34:57;;;;;;;16.65;9.30;;;11.70;70.80;;;;;;2339847;54;21253;-65
2024/03/03 08:37:23;;;;;;;20.70;9.68;;;11.70;70.70;;;;;;2552992;53;21076;-65
2024/03/03 08:39:49;;;;;;;17.30;9.23;;;11.70;70.70;;;;;;2340249;54;21315;-65
2024/03/03 08:42:16;;;;;;;13.02;8.73;;;11.80;70.80;;;;;;2340031;54;20969;-65
2024/03/03 08:44:42;;;;;;;14.80;9.30;;;11.80;70.90;;;;;;2340243;54;21020;-65
2024/03/03 08:47:08;;;;;;;18.65;9.85;;;11.90;71.00;;;;;;2585676;53;20953;-65
2024/03/03 08:49:35;;;;;;;15.40;9.27;;;11.90;71.00;;;;;;2339643;54;20948;-65
2024/03/03 08:52:05;;;;;;;14.23;9.02;;;12.00;71.00;;;;;;2585384;53;21008;-65
2024/03/03 08:54:32;;;;;;;18.87;9.80;;;12.00;71.70;;;;;;2585432;53;20992;-66
2024/03/03 08:56:59;;;;;;;16.80;9.27;;;12.10;71.20;;;;;;2340067;54;20917;-65
2024/03/03 08:59:26;;;;;;;16.42;9.40;;;12.10;71.10;;;;;;2339360;54;20992;-65
2024/03/03 09:01:53;;;;;;;17.45;10.18;;;12.20;71.20;;;;;;2340396;54;20980;-67
2024/03/03 09:04:20;;;;;;;16.62;9.98;;;12.20;71.20;;;;;;2339462;54;21017;-65
2024/03/03 09:06:46;;;;;;;16.95;9.00;;;12.30;71.10;;;;;;2318877;54;20983;-66
2024/03/03 09:09:16;;;;;;;16.98;10.27;;;12.30;71.00;;;;;;2337462;54;21228;-65
2024/03/03 09:11:45;;;;;;;17.95;10.18;;;12.40;71.10;;;;;;2326500;55;21077;-66
2024/03/03 09:14:14;;;;;;;16.73;10.25;;;12.40;71.00;;;;;;2331832;54;20949;-65
2024/03/03 09:16:40;;;;;;;16.80;10.00;;;12.40;71.00;;;;;;2584333;53;21304;-65
2024/03/03 09:19:07;;;;;;;16.25;9.82;;;12.50;71.10;;;;;;2340015;54;21435;-66
2024/03/03 09:21:34;;;;;;;17.92;11.77;;;12.50;71.10;;;;;;2339560;54;20953;-65
2024/03/03 09:24:01;;;;;;;18.58;11.05;;;12.50;71.00;;;;;;2339299;54;20965;-65
2024/03/03 09:26:30;;;;;;;19.37;11.18;;;12.60;70.90;;;;;;2585129;53;20977;-66
2024/03/03 09:28:56;;;;;;;17.55;11.20;;;12.60;70.80;;;;;;2338560;54;21703;-66
2024/03/03 09:31:22;;;;;;;19.58;11.85;;;12.60;70.70;;;;;;2339414;54;21012;-65
2024/03/03 09:33:49;;;;;;;20.15;11.88;;;12.70;70.70;;;;;;2585774;53;21080;-65
2024/03/03 09:36:15;;;;;;;17.60;10.95;;;12.70;70.70;;;;;;2339644;54;20948;-66
2024/03/03 09:38:42;;;;;;;18.05;11.00;;;12.70;70.70;;;;;;2584830;53;21719;-65
2024/03/03 09:41:08;;;;;;;15.13;9.02;;;12.70;70.70;;;;;;2339631;54;21241;-65
2024/03/03 09:43:39;;;;;;;16.50;10.15;;;12.70;70.70;;;;;;2338736;54;21513;-66
2024/03/03 09:46:05;;;;;;;16.50;9.80;;;12.80;71.50;;;;;;2585286;53;20968;-65
2024/03/03 09:48:32;;;;;;;17.80;10.90;;;12.80;70.80;;;;;;2339247;54;20940;-65
2024/03/03 09:50:59;;;;;;;16.52;10.27;;;12.80;70.80;;;;;;2585554;53;21025;-65
2024/03/03 09:53:27;;;;;;;19.65;10.55;;;12.90;70.90;;;;;;2339051;54;21253;-65
2024/03/03 09:55:55;;;;;;;19.58;11.00;;;12.90;70.80;;;;;;2339931;54;21398;-66
2024/03/03 09:58:21;;;;;;;18.30;11.12;;;12.90;70.80;;;;;;2339343;54;20969;-66
2024/03/03 10:00:51;;;;;;;19.45;11.52;;;12.90;70.80;;;;;;2339392;54;20964;-65
2024/03/03 10:03:20;;;;;;;19.05;11.48;;;13.00;70.70;;;;;;2339500;54;21543;-65
2024/03/03 10:05:46;;;;;;;17.85;10.73;;;13.00;70.70;;;;;;2551212;53;21403;-66
2024/03/03 10:08:12;;;;;;;20.15;11.20;;;13.00;70.70;;;;;;2585223;53;20929;-65
2024/03/03 10:10:42;;;;;;;17.30;10.45;;;13.00;70.70;;;;;;2338592;54;21253;-66
2024/03/03 10:13:09;;;;;;;15.35;9.43;;;13.10;70.80;;;;;;2584372;53;20924;-66
2024/03/03 10:15:36;;;;;;;18.23;10.75;;;13.10;70.80;;;;;;2338795;54;20950;-66
2024/03/03 10:18:03;;;;;;;18.17;10.25;;;13.10;70.90;;;;;;2339746;54;20937;-65
2024/03/03 10:20:29;;;;;;;16.02;9.95;;;13.20;71.10;;;;;;2330369;54;21030;-66
2024/03/03 10:22:55;;;;;;;19.77;10.18;;;13.20;71.20;;;;;;2305971;54;20972;-65
2024/03/03 10:25:24;;;;;;;17.75;10.55;;;13.30;71.40;;;;;;2339324;54;21446;-66
2024/03/03 10:27:52;;;;;;;18.00;11.00;;;13.30;71.30;;;;;;2315705;54;20997;-66
2024/03/03 10:30:20;;;;;;;18.45;10.60;;;13.40;71.30;;;;;;2338587;54;21033;-66
2024/03/03 10:32:48;;;;;;;17.55;10.35;;;13.40;71.30;;;;;;2339259;54;21040;-66
2024/03/03 10:35:16;;;;;;;15.63;9.65;;;13.40;71.30;;;;;;2339209;54;21149;-65
2024/03/03 10:38:03;;;;;;;16.20;9.43;;;13.50;71.70;;;;;;2583586;53;21067;-65
2024/03/03 10:40:31;;;;;;;14.85;8.85;;;13.60;71.50;;;;;;2339294;54;21408;-66
2024/03/03 10:42:57;;;;;;;14.80;9.07;;;13.60;72.00;;;;;;2585585;53;20977;-66
2024/03/03 10:45:25;;;;;;;17.92;10.15;;;13.70;72.20;;;;;;2585399;53;20995;-67
2024/03/03 10:47:55;;;;;;;18.37;10.52;;;13.80;72.30;;;;;;2339574;54;21382;-67
2024/03/03 10:50:22;;;;;;;16.30;10.27;;;13.90;72.20;;;;;;2339166;54;21001;-67
2024/03/03 10:52:50;;;;;;;19.65;10.70;;;13.90;72.20;;;;;;2585279;53;21411;-67
2024/03/03 10:55:16;;;;;;;15.40;9.75;;;14.00;72.20;;;;;;2337801;54;21318;-66
2024/03/03 10:57:45;;;;;;;17.17;9.05;;;14.10;72.20;;;;;;2337397;54;21027;-67
2024/03/03 11:00:19;;;;;;;15.05;9.35;;;14.20;72.30;;;;;;2303709;54;20937;-67
2024/03/03 11:02:45;;;;;;;14.15;8.88;;;14.30;72.40;;;;;;2314664;54;20996;-66
2024/03/03 11:05:12;;;;;;;13.95;8.45;;;14.30;72.40;;;;;;2339285;54;20953;-66
2024/03/03 11:07:38;;;;;;;12.73;7.78;;;14.40;72.40;;;;;;2339407;54;21016;-66
2024/03/03 11:10:06;;;;;;;13.02;8.02;;;14.50;72.50;;;;;;2340216;54;20976;-65
2024/03/03 11:12:37;;;;;;;15.52;8.40;;;14.60;72.50;;;;;;2585400;53;21450;-66
2024/03/03 11:15:07;;;;;;;13.43;8.27;;;14.70;72.60;;;;;;2585653;53;21752;-65
2024/03/03 11:17:38;;;;;;;14.52;9.05;;;14.80;72.60;;;;;;2337867;54;21359;-65
2024/03/03 11:20:07;;;;;;;15.00;9.67;;;14.80;72.10;;;;;;2318817;54;21450;-65
2024/03/03 11:22:35;;;;;;;16.65;10.15;;;14.90;72.00;;;;;;2339744;54;21280;-66
2024/03/03 11:25:05;;;;;;;14.05;8.95;;;15.00;71.70;;;;;;2340059;54;21087;-66
2024/03/03 11:27:34;;;;;;;14.05;8.88;;;15.00;71.20;;;;;;2341059;54;21039;-66
2024/03/03 11:30:00;;;;;;;13.93;8.38;;;15.10;71.40;;;;;;2339621;54;20956;-65
2024/03/03 11:32:27;;;;;;;14.90;9.02;;;15.00;71.10;;;;;;2585629;53;20953;-66
2024/03/03 11:34:53;;;;;;;14.45;9.10;;;15.10;70.90;;;;;;2339781;54;21013;-65
2024/03/03 11:37:20;;;;;;;13.25;8.55;;;15.20;71.00;;;;;;2339196;54;21016;-66
2024/03/03 11:39:56;;;;;;;14.15;8.88;;;15.20;70.90;;;;;;2321863;54;21002;-65
2024/03/03 11:42:37;;;;;;;14.35;8.82;;;15.20;70.50;;;;;;2563064;53;21006;-66
2024/03/03 11:45:06;;;;;;;13.43;8.27;;;15.30;70.20;;;;;;2332346;54;20956;-65
2024/03/03 11:47:36;;;;;;;13.85;8.77;;;15.30;70.80;;;;;;2339301;54;21438;-66
2024/03/03 11:50:26;;;;;;;13.77;8.38;;;15.40;70.70;;;;;;2339526;54;22412;-66
2024/03/03 11:52:52;;;;;;;13.68;8.68;;;15.40;69.90;;;;;;2309869;54;21687;-65
2024/03/03 11:55:30;;;;;;;13.15;7.80;;;15.40;70.70;;;;;;2308048;54;21039;-66
2024/03/03 11:57:58;;;;;;;13.75;8.10;;;15.40;70.50;;;;;;2307918;56;21007;-66
2024/03/03 12:00:26;;;;;;;14.45;8.65;;;15.40;70.60;;;;;;2547342;54;21220;-66
2024/03/03 12:02:55;;;;;;;16.67;9.38;;;15.40;70.40;;;;;;2307813;55;21394;-66
2024/03/03 12:05:22;;;;;;;14.10;8.13;;;15.40;70.40;;;;;;2545552;54;20964;-66
2024/03/03 12:07:50;;;;;;;14.87;9.13;;;15.50;70.40;;;;;;2294207;56;21043;-65
2024/03/03 12:10:20;;;;;;;16.33;9.85;;;15.50;70.30;;;;;;2546722;54;21691;-69
2024/03/03 12:12:47;;;;;;;12.48;8.20;;;15.50;69.90;;;;;;2307979;56;20968;-68
2024/03/03 12:15:16;;;;;;;15.73;9.35;;;15.50;70.10;;;;;;2308154;54;22430;-66
2024/03/03 12:17:43;;;;;;;15.82;8.82;;;15.50;70.10;;;;;;2546988;53;21323;-67
2024/03/03 12:20:10;;;;;;;17.52;9.27;;;15.40;69.90;;;;;;2307668;55;21481;-67
2024/03/03 12:22:36;;;;;;;14.70;8.95;;;15.50;69.80;;;;;;2546351;54;20971;-65
2024/03/03 12:25:03;;;;;;;14.38;9.18;;;15.50;69.80;;;;;;2548317;53;20982;-67
2024/03/03 12:27:29;;;;;;;16.52;8.30;;;15.50;69.70;;;;;;2310276;55;20985;-68
2024/03/03 12:30:11;;;;;;;15.82;9.23;;;15.50;69.70;;;;;;2321804;55;20955;-66
2024/03/03 12:32:37;;;;;;;10.70;7.25;;;15.50;69.30;;;;;;2340423;54;21008;-68
2024/03/03 12:35:04;;;;;;;14.40;8.48;;;15.50;69.80;;;;;;2586112;53;20949;-66
2024/03/03 12:37:33;;;;;;;13.05;8.23;;;15.50;69.90;;;;;;2340500;54;21253;-66
2024/03/03 12:40:00;;;;;;;13.85;8.63;;;15.50;69.80;;;;;;2585809;53;21482;-66